Aviation Digital Data Service (ADDS)

Output produced by METARs form (1427 UTC 27 March 2017)
found at http://aviationweather.gov/adds/metars/
 
KLBE 271140Z 2712/2812 14009KT P6SM VCSH SCT015 OVC050 
     FM271400 23007KT P6SM BKN050 
     FM280900 18003KT 5SM -SHRA OVC035